sensor_id;sensor_type;location;lat;lon;timestamp;P1;durP1;ratioP1;P2;durP2;ratioP2
26157;SDS011;67284;44.782;10.282;2023-07-31T00:03:49;7.68;;;5.68;;
26157;SDS011;67284;44.782;10.282;2023-07-31T00:08:41;12.48;;;6.80;;
26157;SDS011;67284;44.782;10.282;2023-07-31T00:13:33;11.27;;;6.18;;
26157;SDS011;67284;44.782;10.282;2023-07-31T00:18:25;8.38;;;6.40;;
26157;SDS011;67284;44.782;10.282;2023-07-31T00:23:16;6.75;;;5.82;;
26157;SDS011;67284;44.782;10.282;2023-07-31T00:28:08;10.10;;;6.80;;
26157;SDS011;67284;44.782;10.282;2023-07-31T00:33:00;8.60;;;6.43;;
26157;SDS011;67284;44.782;10.282;2023-07-31T00:37:53;7.60;;;6.80;;
26157;SDS011;67284;44.782;10.282;2023-07-31T00:42:45;6.50;;;5.78;;
26157;SDS011;67284;44.782;10.282;2023-07-31T00:47:38;7.30;;;6.10;;
26157;SDS011;67284;44.782;10.282;2023-07-31T00:52:30;6.85;;;6.15;;
26157;SDS011;67284;44.782;10.282;2023-07-31T00:57:22;9.20;;;5.93;;
26157;SDS011;67284;44.782;10.282;2023-07-31T01:02:15;8.57;;;6.18;;
26157;SDS011;67284;44.782;10.282;2023-07-31T01:07:25;8.98;;;6.60;;
26157;SDS011;67284;44.782;10.282;2023-07-31T01:12:22;8.30;;;7.38;;
26157;SDS011;67284;44.782;10.282;2023-07-31T01:17:16;16.92;;;7.63;;
26157;SDS011;67284;44.782;10.282;2023-07-31T01:27:23;12.90;;;8.13;;
26157;SDS011;67284;44.782;10.282;2023-07-31T01:32:19;12.17;;;6.57;;
26157;SDS011;67284;44.782;10.282;2023-07-31T01:37:11;8.60;;;6.60;;
26157;SDS011;67284;44.782;10.282;2023-07-31T01:42:03;7.30;;;6.57;;
26157;SDS011;67284;44.782;10.282;2023-07-31T01:46:55;9.25;;;6.65;;
26157;SDS011;67284;44.782;10.282;2023-07-31T01:51:47;8.55;;;6.20;;
26157;SDS011;67284;44.782;10.282;2023-07-31T01:56:39;6.80;;;6.10;;
26157;SDS011;67284;44.782;10.282;2023-07-31T02:01:31;6.95;;;6.13;;
26157;SDS011;67284;44.782;10.282;2023-07-31T02:06:23;9.25;;;6.13;;
26157;SDS011;67284;44.782;10.282;2023-07-31T02:11:15;11.45;;;6.95;;
26157;SDS011;67284;44.782;10.282;2023-07-31T02:16:07;7.50;;;6.80;;
26157;SDS011;67284;44.782;10.282;2023-07-31T02:20:59;9.70;;;6.43;;
26157;SDS011;67284;44.782;10.282;2023-07-31T02:25:51;8.18;;;6.90;;
26157;SDS011;67284;44.782;10.282;2023-07-31T02:30:46;12.23;;;6.68;;
26157;SDS011;67284;44.782;10.282;2023-07-31T02:35:38;9.45;;;6.53;;
26157;SDS011;67284;44.782;10.282;2023-07-31T02:40:30;9.43;;;7.43;;
26157;SDS011;67284;44.782;10.282;2023-07-31T02:45:21;8.07;;;7.00;;
26157;SDS011;67284;44.782;10.282;2023-07-31T02:50:13;8.27;;;7.47;;
26157;SDS011;67284;44.782;10.282;2023-07-31T02:55:05;7.28;;;6.50;;
26157;SDS011;67284;44.782;10.282;2023-07-31T02:59:57;8.82;;;7.22;;
26157;SDS011;67284;44.782;10.282;2023-07-31T03:04:49;9.27;;;7.50;;
26157;SDS011;67284;44.782;10.282;2023-07-31T03:09:41;11.68;;;7.53;;
26157;SDS011;67284;44.782;10.282;2023-07-31T03:14:33;10.40;;;6.57;;
26157;SDS011;67284;44.782;10.282;2023-07-31T03:19:25;7.82;;;6.85;;
26157;SDS011;67284;44.782;10.282;2023-07-31T03:24:17;9.40;;;6.95;;
26157;SDS011;67284;44.782;10.282;2023-07-31T03:29:08;9.85;;;7.40;;
26157;SDS011;67284;44.782;10.282;2023-07-31T03:34:00;9.60;;;7.47;;
26157;SDS011;67284;44.782;10.282;2023-07-31T03:38:52;9.40;;;7.43;;
26157;SDS011;67284;44.782;10.282;2023-07-31T03:43:45;7.97;;;7.18;;
26157;SDS011;67284;44.782;10.282;2023-07-31T03:48:39;9.35;;;8.20;;
26157;SDS011;67284;44.782;10.282;2023-07-31T03:53:31;9.50;;;8.60;;
26157;SDS011;67284;44.782;10.282;2023-07-31T03:58:23;10.23;;;9.30;;
26157;SDS011;67284;44.782;10.282;2023-07-31T04:03:15;12.43;;;10.70;;
26157;SDS011;67284;44.782;10.282;2023-07-31T04:08:07;15.65;;;10.43;;
26157;SDS011;67284;44.782;10.282;2023-07-31T04:12:59;11.93;;;10.13;;
26157;SDS011;67284;44.782;10.282;2023-07-31T04:17:52;10.32;;;9.30;;
26157;SDS011;67284;44.782;10.282;2023-07-31T04:22:44;15.15;;;10.27;;
26157;SDS011;67284;44.782;10.282;2023-07-31T04:27:35;12.38;;;10.50;;
26157;SDS011;67284;44.782;10.282;2023-07-31T04:32:27;11.48;;;9.90;;
26157;SDS011;67284;44.782;10.282;2023-07-31T04:37:20;11.90;;;10.60;;
26157;SDS011;67284;44.782;10.282;2023-07-31T04:42:12;11.73;;;9.55;;
26157;SDS011;67284;44.782;10.282;2023-07-31T04:47:04;10.65;;;9.55;;
26157;SDS011;67284;44.782;10.282;2023-07-31T04:51:56;12.18;;;9.30;;
26157;SDS011;67284;44.782;10.282;2023-07-31T04:56:48;12.55;;;9.02;;
26157;SDS011;67284;44.782;10.282;2023-07-31T05:01:40;9.35;;;8.40;;
26157;SDS011;67284;44.782;10.282;2023-07-31T05:06:32;11.57;;;8.77;;
26157;SDS011;67284;44.782;10.282;2023-07-31T05:11:24;11.10;;;8.43;;
26157;SDS011;67284;44.782;10.282;2023-07-31T05:16:15;9.95;;;8.95;;
26157;SDS011;67284;44.782;10.282;2023-07-31T05:21:08;11.60;;;9.95;;
26157;SDS011;67284;44.782;10.282;2023-07-31T05:26:03;10.48;;;8.85;;
26157;SDS011;67284;44.782;10.282;2023-07-31T05:31:02;14.30;;;9.70;;
26157;SDS011;67284;44.782;10.282;2023-07-31T05:35:55;8.20;;;7.38;;
26157;SDS011;67284;44.782;10.282;2023-07-31T05:40:47;10.82;;;7.65;;
26157;SDS011;67284;44.782;10.282;2023-07-31T05:45:39;9.02;;;6.47;;
26157;SDS011;67284;44.782;10.282;2023-07-31T05:50:31;7.97;;;6.68;;
26157;SDS011;67284;44.782;10.282;2023-07-31T05:55:24;6.63;;;5.50;;
26157;SDS011;67284;44.782;10.282;2023-07-31T06:00:18;7.95;;;5.78;;
26157;SDS011;67284;44.782;10.282;2023-07-31T06:05:10;6.53;;;5.25;;
26157;SDS011;67284;44.782;10.282;2023-07-31T06:10:02;9.13;;;6.40;;
26157;SDS011;67284;44.782;10.282;2023-07-31T06:14:57;7.82;;;6.07;;
26157;SDS011;67284;44.782;10.282;2023-07-31T06:19:49;10.10;;;6.50;;
26157;SDS011;67284;44.782;10.282;2023-07-31T06:24:43;6.82;;;5.45;;
26157;SDS011;67284;44.782;10.282;2023-07-31T06:29:35;8.18;;;5.30;;
26157;SDS011;67284;44.782;10.282;2023-07-31T06:34:26;7.70;;;4.82;;
26157;SDS011;67284;44.782;10.282;2023-07-31T06:39:18;10.80;;;5.53;;
26157;SDS011;67284;44.782;10.282;2023-07-31T06:44:10;6.78;;;5.28;;
26157;SDS011;67284;44.782;10.282;2023-07-31T06:49:02;7.82;;;6.13;;
26157;SDS011;67284;44.782;10.282;2023-07-31T06:53:54;7.15;;;5.22;;
26157;SDS011;67284;44.782;10.282;2023-07-31T06:58:46;7.18;;;5.95;;
26157;SDS011;67284;44.782;10.282;2023-07-31T07:03:38;13.27;;;6.07;;
26157;SDS011;67284;44.782;10.282;2023-07-31T07:08:30;13.18;;;6.15;;
26157;SDS011;67284;44.782;10.282;2023-07-31T07:13:22;9.88;;;6.60;;
26157;SDS011;67284;44.782;10.282;2023-07-31T07:18:13;11.10;;;7.45;;
26157;SDS011;67284;44.782;10.282;2023-07-31T07:23:05;8.82;;;5.88;;
26157;SDS011;67284;44.782;10.282;2023-07-31T07:27:57;9.07;;;6.88;;
26157;SDS011;67284;44.782;10.282;2023-07-31T07:32:49;6.32;;;4.90;;
26157;SDS011;67284;44.782;10.282;2023-07-31T07:37:41;7.13;;;4.32;;
26157;SDS011;67284;44.782;10.282;2023-07-31T07:42:33;8.63;;;5.22;;
26157;SDS011;67284;44.782;10.282;2023-07-31T07:47:25;10.30;;;4.72;;
26157;SDS011;67284;44.782;10.282;2023-07-31T07:52:19;7.70;;;4.88;;
26157;SDS011;67284;44.782;10.282;2023-07-31T07:57:11;6.88;;;4.72;;
26157;SDS011;67284;44.782;10.282;2023-07-31T08:02:03;5.95;;;4.63;;
26157;SDS011;67284;44.782;10.282;2023-07-31T08:06:55;11.13;;;5.03;;
26157;SDS011;67284;44.782;10.282;2023-07-31T08:11:47;6.80;;;4.30;;
26157;SDS011;67284;44.782;10.282;2023-07-31T08:16:39;7.25;;;3.95;;
26157;SDS011;67284;44.782;10.282;2023-07-31T08:21:32;5.43;;;4.60;;
26157;SDS011;67284;44.782;10.282;2023-07-31T08:26:24;9.45;;;6.13;;
26157;SDS011;67284;44.782;10.282;2023-07-31T08:31:16;8.45;;;4.18;;
26157;SDS011;67284;44.782;10.282;2023-07-31T08:36:08;5.25;;;3.75;;
26157;SDS011;67284;44.782;10.282;2023-07-31T08:41:00;11.35;;;4.38;;
26157;SDS011;67284;44.782;10.282;2023-07-31T08:45:53;9.30;;;4.78;;
26157;SDS011;67284;44.782;10.282;2023-07-31T08:50:45;8.43;;;3.60;;
26157;SDS011;67284;44.782;10.282;2023-07-31T08:55:40;6.47;;;3.85;;
26157;SDS011;67284;44.782;10.282;2023-07-31T09:00:33;5.95;;;3.50;;
26157;SDS011;67284;44.782;10.282;2023-07-31T09:05:26;11.32;;;3.60;;
26157;SDS011;67284;44.782;10.282;2023-07-31T09:10:19;4.75;;;2.83;;
26157;SDS011;67284;44.782;10.282;2023-07-31T09:15:11;4.70;;;2.58;;
26157;SDS011;67284;44.782;10.282;2023-07-31T09:20:22;2.97;;;2.42;;
26157;SDS011;67284;44.782;10.282;2023-07-31T09:30:10;4.20;;;2.40;;
26157;SDS011;67284;44.782;10.282;2023-07-31T09:35:02;3.03;;;2.20;;
26157;SDS011;67284;44.782;10.282;2023-07-31T09:40:05;2.53;;;2.22;;
26157;SDS011;67284;44.782;10.282;2023-07-31T09:45:07;3.13;;;2.20;;
26157;SDS011;67284;44.782;10.282;2023-07-31T09:50:00;3.63;;;2.35;;
26157;SDS011;67284;44.782;10.282;2023-07-31T09:54:52;2.30;;;2.10;;
26157;SDS011;67284;44.782;10.282;2023-07-31T09:59:45;3.40;;;2.58;;
26157;SDS011;67284;44.782;10.282;2023-07-31T10:04:39;5.60;;;2.40;;
26157;SDS011;67284;44.782;10.282;2023-07-31T10:09:31;3.90;;;2.67;;
26157;SDS011;67284;44.782;10.282;2023-07-31T10:14:24;3.92;;;2.47;;
26157;SDS011;67284;44.782;10.282;2023-07-31T10:19:18;2.58;;;2.38;;
26157;SDS011;67284;44.782;10.282;2023-07-31T10:24:10;8.82;;;3.38;;
26157;SDS011;67284;44.782;10.282;2023-07-31T10:29:03;4.68;;;3.17;;
26157;SDS011;67284;44.782;10.282;2023-07-31T10:33:57;4.43;;;3.22;;
26157;SDS011;67284;44.782;10.282;2023-07-31T10:38:50;3.42;;;2.70;;
26157;SDS011;67284;44.782;10.282;2023-07-31T10:43:43;4.22;;;3.28;;
26157;SDS011;67284;44.782;10.282;2023-07-31T10:48:38;4.03;;;3.30;;
26157;SDS011;67284;44.782;10.282;2023-07-31T10:53:32;3.70;;;3.30;;
26157;SDS011;67284;44.782;10.282;2023-07-31T10:58:24;4.20;;;3.42;;
26157;SDS011;67284;44.782;10.282;2023-07-31T11:03:17;5.03;;;3.40;;
26157;SDS011;67284;44.782;10.282;2023-07-31T11:08:12;4.07;;;3.35;;
26157;SDS011;67284;44.782;10.282;2023-07-31T11:13:09;4.10;;;2.97;;
26157;SDS011;67284;44.782;10.282;2023-07-31T11:18:02;4.20;;;3.58;;
26157;SDS011;67284;44.782;10.282;2023-07-31T11:23:05;6.45;;;3.40;;
26157;SDS011;67284;44.782;10.282;2023-07-31T11:28:12;5.35;;;3.85;;
26157;SDS011;67284;44.782;10.282;2023-07-31T11:33:05;5.05;;;3.30;;
26157;SDS011;67284;44.782;10.282;2023-07-31T11:37:57;3.70;;;3.20;;
26157;SDS011;67284;44.782;10.282;2023-07-31T11:42:50;3.83;;;3.30;;
26157;SDS011;67284;44.782;10.282;2023-07-31T11:47:41;3.60;;;2.75;;
26157;SDS011;67284;44.782;10.282;2023-07-31T11:52:35;4.57;;;3.33;;
26157;SDS011;67284;44.782;10.282;2023-07-31T12:02:23;5.85;;;3.60;;
26157;SDS011;67284;44.782;10.282;2023-07-31T12:07:15;4.18;;;3.50;;
26157;SDS011;67284;44.782;10.282;2023-07-31T12:12:08;8.52;;;3.55;;
26157;SDS011;67284;44.782;10.282;2023-07-31T12:17:03;5.78;;;3.90;;
26157;SDS011;67284;44.782;10.282;2023-07-31T12:21:56;4.13;;;3.30;;
26157;SDS011;67284;44.782;10.282;2023-07-31T12:26:48;3.67;;;3.35;;
26157;SDS011;67284;44.782;10.282;2023-07-31T12:31:41;6.50;;;4.43;;
26157;SDS011;67284;44.782;10.282;2023-07-31T12:36:34;9.48;;;3.83;;
26157;SDS011;67284;44.782;10.282;2023-07-31T12:41:28;5.05;;;3.72;;
26157;SDS011;67284;44.782;10.282;2023-07-31T12:46:20;3.50;;;3.17;;
26157;SDS011;67284;44.782;10.282;2023-07-31T12:51:12;3.72;;;3.35;;
26157;SDS011;67284;44.782;10.282;2023-07-31T12:56:05;5.40;;;3.65;;
26157;SDS011;67284;44.782;10.282;2023-07-31T13:00:57;6.10;;;3.90;;
26157;SDS011;67284;44.782;10.282;2023-07-31T13:05:49;4.30;;;3.90;;
26157;SDS011;67284;44.782;10.282;2023-07-31T13:10:41;6.03;;;4.05;;
26157;SDS011;67284;44.782;10.282;2023-07-31T13:15:33;5.15;;;4.05;;
26157;SDS011;67284;44.782;10.282;2023-07-31T13:20:25;5.93;;;3.97;;
26157;SDS011;67284;44.782;10.282;2023-07-31T13:25:17;4.88;;;4.25;;
26157;SDS011;67284;44.782;10.282;2023-07-31T13:30:09;5.32;;;4.57;;
26157;SDS011;67284;44.782;10.282;2023-07-31T13:35:01;3.72;;;3.33;;
26157;SDS011;67284;44.782;10.282;2023-07-31T13:39:53;4.45;;;3.65;;
26157;SDS011;67284;44.782;10.282;2023-07-31T13:44:45;5.28;;;3.65;;
26157;SDS011;67284;44.782;10.282;2023-07-31T13:49:38;4.72;;;4.32;;
26157;SDS011;67284;44.782;10.282;2023-07-31T13:54:30;4.45;;;3.92;;
26157;SDS011;67284;44.782;10.282;2023-07-31T13:59:22;4.32;;;3.92;;
26157;SDS011;67284;44.782;10.282;2023-07-31T14:04:14;4.80;;;4.30;;
26157;SDS011;67284;44.782;10.282;2023-07-31T14:09:06;3.60;;;3.30;;
26157;SDS011;67284;44.782;10.282;2023-07-31T14:13:58;4.80;;;3.72;;
26157;SDS011;67284;44.782;10.282;2023-07-31T14:18:50;4.75;;;3.55;;
26157;SDS011;67284;44.782;10.282;2023-07-31T14:23:42;4.28;;;3.45;;
26157;SDS011;67284;44.782;10.282;2023-07-31T14:28:34;5.18;;;3.53;;
26157;SDS011;67284;44.782;10.282;2023-07-31T14:33:26;3.97;;;3.58;;
26157;SDS011;67284;44.782;10.282;2023-07-31T14:38:18;4.28;;;3.70;;
26157;SDS011;67284;44.782;10.282;2023-07-31T14:43:09;4.10;;;3.70;;
26157;SDS011;67284;44.782;10.282;2023-07-31T14:48:01;3.85;;;3.45;;
26157;SDS011;67284;44.782;10.282;2023-07-31T14:52:54;5.03;;;4.43;;
26157;SDS011;67284;44.782;10.282;2023-07-31T14:57:46;4.38;;;3.90;;
26157;SDS011;67284;44.782;10.282;2023-07-31T15:02:38;4.43;;;3.97;;
26157;SDS011;67284;44.782;10.282;2023-07-31T15:07:31;6.78;;;4.10;;
26157;SDS011;67284;44.782;10.282;2023-07-31T15:12:24;4.38;;;3.97;;
26157;SDS011;67284;44.782;10.282;2023-07-31T15:17:17;6.13;;;3.75;;
26157;SDS011;67284;44.782;10.282;2023-07-31T15:22:09;5.28;;;4.78;;
26157;SDS011;67284;44.782;10.282;2023-07-31T15:27:00;4.40;;;4.00;;
26157;SDS011;67284;44.782;10.282;2023-07-31T15:31:54;4.10;;;3.60;;
26157;SDS011;67284;44.782;10.282;2023-07-31T15:36:46;6.43;;;4.03;;
26157;SDS011;67284;44.782;10.282;2023-07-31T15:41:39;6.28;;;4.18;;
26157;SDS011;67284;44.782;10.282;2023-07-31T15:46:32;9.80;;;4.80;;
26157;SDS011;67284;44.782;10.282;2023-07-31T15:51:24;4.70;;;3.83;;
26157;SDS011;67284;44.782;10.282;2023-07-31T15:56:16;5.07;;;3.55;;
26157;SDS011;67284;44.782;10.282;2023-07-31T16:01:08;6.55;;;3.83;;
26157;SDS011;67284;44.782;10.282;2023-07-31T16:06:00;6.60;;;3.95;;
26157;SDS011;67284;44.782;10.282;2023-07-31T16:10:52;3.63;;;3.20;;
26157;SDS011;67284;44.782;10.282;2023-07-31T16:15:44;7.85;;;4.07;;
26157;SDS011;67284;44.782;10.282;2023-07-31T16:20:36;5.65;;;3.65;;
26157;SDS011;67284;44.782;10.282;2023-07-31T16:25:28;4.28;;;3.08;;
26157;SDS011;67284;44.782;10.282;2023-07-31T16:30:20;5.03;;;3.30;;
26157;SDS011;67284;44.782;10.282;2023-07-31T16:35:12;4.13;;;3.45;;
26157;SDS011;67284;44.782;10.282;2023-07-31T16:40:06;5.05;;;3.47;;
26157;SDS011;67284;44.782;10.282;2023-07-31T16:44:58;5.32;;;4.22;;
26157;SDS011;67284;44.782;10.282;2023-07-31T16:49:50;7.45;;;3.40;;
26157;SDS011;67284;44.782;10.282;2023-07-31T16:54:42;5.63;;;3.70;;
26157;SDS011;67284;44.782;10.282;2023-07-31T16:59:34;5.07;;;3.22;;
26157;SDS011;67284;44.782;10.282;2023-07-31T17:04:26;6.93;;;3.78;;
26157;SDS011;67284;44.782;10.282;2023-07-31T17:09:19;5.53;;;3.33;;
26157;SDS011;67284;44.782;10.282;2023-07-31T17:14:11;4.88;;;3.05;;
26157;SDS011;67284;44.782;10.282;2023-07-31T17:19:06;5.93;;;3.28;;
26157;SDS011;67284;44.782;10.282;2023-07-31T17:23:58;6.40;;;3.35;;
26157;SDS011;67284;44.782;10.282;2023-07-31T17:28:51;4.10;;;2.85;;
26157;SDS011;67284;44.782;10.282;2023-07-31T17:33:43;4.10;;;3.10;;
26157;SDS011;67284;44.782;10.282;2023-07-31T17:38:35;4.85;;;3.00;;
26157;SDS011;67284;44.782;10.282;2023-07-31T17:43:27;3.33;;;2.83;;
26157;SDS011;67284;44.782;10.282;2023-07-31T17:48:19;3.75;;;2.60;;
26157;SDS011;67284;44.782;10.282;2023-07-31T17:53:11;4.47;;;2.70;;
26157;SDS011;67284;44.782;10.282;2023-07-31T17:58:03;2.90;;;2.70;;
26157;SDS011;67284;44.782;10.282;2023-07-31T18:02:55;3.72;;;2.80;;
26157;SDS011;67284;44.782;10.282;2023-07-31T18:07:47;2.92;;;2.60;;
26157;SDS011;67284;44.782;10.282;2023-07-31T18:12:38;5.45;;;2.65;;
26157;SDS011;67284;44.782;10.282;2023-07-31T18:17:30;2.53;;;2.33;;
26157;SDS011;67284;44.782;10.282;2023-07-31T18:22:22;2.95;;;2.65;;
26157;SDS011;67284;44.782;10.282;2023-07-31T18:27:14;3.85;;;2.33;;
26157;SDS011;67284;44.782;10.282;2023-07-31T18:32:06;8.90;;;2.58;;
26157;SDS011;67284;44.782;10.282;2023-07-31T18:37:00;9.68;;;3.13;;
26157;SDS011;67284;44.782;10.282;2023-07-31T18:41:52;5.05;;;2.90;;
26157;SDS011;67284;44.782;10.282;2023-07-31T18:46:44;5.90;;;3.00;;
26157;SDS011;67284;44.782;10.282;2023-07-31T18:51:36;4.10;;;2.88;;
26157;SDS011;67284;44.782;10.282;2023-07-31T18:56:29;4.25;;;3.00;;
26157;SDS011;67284;44.782;10.282;2023-07-31T19:01:22;5.07;;;2.67;;
26157;SDS011;67284;44.782;10.282;2023-07-31T19:06:15;6.50;;;3.40;;
26157;SDS011;67284;44.782;10.282;2023-07-31T19:11:07;5.15;;;3.55;;
26157;SDS011;67284;44.782;10.282;2023-07-31T19:16:03;5.45;;;3.25;;
26157;SDS011;67284;44.782;10.282;2023-07-31T19:20:55;7.05;;;3.33;;
26157;SDS011;67284;44.782;10.282;2023-07-31T19:25:47;4.45;;;3.28;;
26157;SDS011;67284;44.782;10.282;2023-07-31T19:30:39;8.93;;;3.55;;
26157;SDS011;67284;44.782;10.282;2023-07-31T19:35:31;4.38;;;2.95;;
26157;SDS011;67284;44.782;10.282;2023-07-31T19:40:23;8.30;;;2.97;;
26157;SDS011;67284;44.782;10.282;2023-07-31T19:45:17;5.10;;;3.38;;
26157;SDS011;67284;44.782;10.282;2023-07-31T19:50:09;3.58;;;3.28;;
26157;SDS011;67284;44.782;10.282;2023-07-31T19:55:01;4.53;;;3.22;;
26157;SDS011;67284;44.782;10.282;2023-07-31T19:59:53;14.60;;;4.65;;
26157;SDS011;67284;44.782;10.282;2023-07-31T20:04:46;4.68;;;4.07;;
26157;SDS011;67284;44.782;10.282;2023-07-31T20:09:38;6.35;;;3.90;;
26157;SDS011;67284;44.782;10.282;2023-07-31T20:14:30;7.00;;;3.80;;
26157;SDS011;67284;44.782;10.282;2023-07-31T20:19:24;4.45;;;3.70;;
26157;SDS011;67284;44.782;10.282;2023-07-31T20:24:16;4.50;;;3.72;;
26157;SDS011;67284;44.782;10.282;2023-07-31T20:29:08;5.45;;;3.80;;
26157;SDS011;67284;44.782;10.282;2023-07-31T20:33:59;5.00;;;4.10;;
26157;SDS011;67284;44.782;10.282;2023-07-31T20:38:51;5.00;;;4.30;;
26157;SDS011;67284;44.782;10.282;2023-07-31T20:43:43;4.97;;;3.58;;
26157;SDS011;67284;44.782;10.282;2023-07-31T20:48:35;4.60;;;3.95;;
26157;SDS011;67284;44.782;10.282;2023-07-31T20:53:27;4.07;;;3.50;;
26157;SDS011;67284;44.782;10.282;2023-07-31T20:58:19;4.63;;;3.83;;
26157;SDS011;67284;44.782;10.282;2023-07-31T21:03:11;7.35;;;4.35;;
26157;SDS011;67284;44.782;10.282;2023-07-31T21:08:03;5.00;;;3.90;;
26157;SDS011;67284;44.782;10.282;2023-07-31T21:12:56;4.25;;;3.85;;
26157;SDS011;67284;44.782;10.282;2023-07-31T21:17:49;4.05;;;3.65;;
26157;SDS011;67284;44.782;10.282;2023-07-31T21:22:41;6.95;;;4.50;;
26157;SDS011;67284;44.782;10.282;2023-07-31T21:27:37;7.47;;;4.53;;
26157;SDS011;67284;44.782;10.282;2023-07-31T21:32:28;8.00;;;4.40;;
26157;SDS011;67284;44.782;10.282;2023-07-31T21:37:20;5.78;;;3.97;;
26157;SDS011;67284;44.782;10.282;2023-07-31T21:42:12;7.75;;;4.47;;
26157;SDS011;67284;44.782;10.282;2023-07-31T21:47:05;8.95;;;4.65;;
26157;SDS011;67284;44.782;10.282;2023-07-31T21:51:57;7.10;;;4.93;;
26157;SDS011;67284;44.782;10.282;2023-07-31T21:56:49;6.22;;;3.67;;
26157;SDS011;67284;44.782;10.282;2023-07-31T22:01:41;8.73;;;5.32;;
26157;SDS011;67284;44.782;10.282;2023-07-31T22:06:32;6.97;;;4.50;;
26157;SDS011;67284;44.782;10.282;2023-07-31T22:11:25;5.68;;;4.30;;
26157;SDS011;67284;44.782;10.282;2023-07-31T22:16:16;6.90;;;4.57;;
26157;SDS011;67284;44.782;10.282;2023-07-31T22:21:09;8.50;;;4.45;;
26157;SDS011;67284;44.782;10.282;2023-07-31T22:26:01;7.03;;;4.60;;
26157;SDS011;67284;44.782;10.282;2023-07-31T22:30:53;6.00;;;4.30;;
26157;SDS011;67284;44.782;10.282;2023-07-31T22:35:45;7.57;;;4.85;;
26157;SDS011;67284;44.782;10.282;2023-07-31T22:40:40;6.85;;;4.70;;
26157;SDS011;67284;44.782;10.282;2023-07-31T22:45:32;7.00;;;4.25;;
26157;SDS011;67284;44.782;10.282;2023-07-31T22:50:24;6.32;;;4.50;;
26157;SDS011;67284;44.782;10.282;2023-07-31T22:55:16;9.85;;;4.78;;
26157;SDS011;67284;44.782;10.282;2023-07-31T23:00:08;4.68;;;3.90;;
26157;SDS011;67284;44.782;10.282;2023-07-31T23:05:00;5.70;;;4.38;;
26157;SDS011;67284;44.782;10.282;2023-07-31T23:09:52;7.53;;;4.63;;
26157;SDS011;67284;44.782;10.282;2023-07-31T23:14:46;6.50;;;4.13;;
26157;SDS011;67284;44.782;10.282;2023-07-31T23:19:38;4.75;;;4.15;;
26157;SDS011;67284;44.782;10.282;2023-07-31T23:24:29;5.93;;;4.20;;
26157;SDS011;67284;44.782;10.282;2023-07-31T23:29:21;7.55;;;5.32;;
26157;SDS011;67284;44.782;10.282;2023-07-31T23:34:13;8.32;;;3.92;;
26157;SDS011;67284;44.782;10.282;2023-07-31T23:39:05;5.28;;;4.40;;
26157;SDS011;67284;44.782;10.282;2023-07-31T23:43:57;4.47;;;3.65;;
26157;SDS011;67284;44.782;10.282;2023-07-31T23:48:50;5.72;;;4.25;;
26157;SDS011;67284;44.782;10.282;2023-07-31T23:53:42;5.13;;;3.88;;
26157;SDS011;67284;44.782;10.282;2023-07-31T23:58:34;5.00;;;4.10;;
